Time;durP1;ratioP1;P1;durP2;ratioP2;P2;SDS_P1;SDS_P2;PMS_P1;PMS_P2;Temp;Humidity;BMP_temperature;BMP_pressure;BME280_temperature;BME280_humidity;BME280_pressure;Samples;Min_cycle;Max_cycle;Signal;HPM_P1;HPM_P2
2022/12/15 00:41:01;;;;;;;1999.90;999.90;;;;;;;0.35;100.00;92290.19;5057751;28;20170;-63
2022/12/15 00:43:28;;;;;;;1999.90;999.90;;;;;;;0.28;100.00;92292.25;5056536;28;20171;-63
2022/12/15 00:48:39;;;;;;;1999.90;999.90;;;;;;;0.22;100.00;92321.50;5057746;28;20740;-63
2022/12/15 00:51:04;;;;;;;1999.90;999.90;;;;;;;0.18;100.00;92326.16;5056606;28;20183;-63
2022/12/15 01:21:10;;;;;;;1999.90;999.90;;;;;;;0.15;100.00;92439.66;5056887;28;20267;-63
2022/12/15 01:23:36;;;;;;;1999.90;999.90;;;;;;;0.20;100.00;92441.84;5056262;28;20211;-63
2022/12/15 01:26:03;;;;;;;1999.90;999.90;;;;;;;0.24;100.00;92447.91;5056308;28;20178;-63
2022/12/15 01:28:28;;;;;;;1999.90;999.90;;;;;;;0.19;100.00;92451.06;5055490;28;20278;-63
2022/12/15 01:30:53;;;;;;;1999.90;999.90;;;;;;;0.07;100.00;92470.41;5055175;28;20171;-62
2022/12/15 01:33:19;;;;;;;1999.90;999.90;;;;;;;0.06;100.00;92470.84;5055572;28;20181;-62
2022/12/15 01:35:57;;;;;;;1999.90;999.90;;;;;;;0.18;100.00;92476.34;5055542;28;20181;-68
2022/12/15 01:38:23;;;;;;;1999.90;999.90;;;;;;;0.13;100.00;92495.63;5055813;28;20170;-68
2022/12/15 01:41:04;;;;;;;1999.90;999.90;;;;;;;0.15;100.00;92498.66;5055318;28;20182;-69
2022/12/15 01:43:32;;;;;;;1999.90;999.90;;;;;;;0.23;100.00;92505.41;5055880;28;20227;-68
2022/12/15 01:46:00;;;;;;;1999.90;999.90;;;;;;;0.21;100.00;92518.47;5055104;28;20172;-68
2022/12/15 01:48:48;;;;;;;1999.90;999.90;;;;;;;0.28;100.00;92509.56;5056084;28;20171;-68
2022/12/15 01:51:31;;;;;;;1999.90;999.90;;;;;;;0.27;100.00;92516.06;5055907;28;20167;-64
2022/12/15 01:54:15;;;;;;;1999.90;999.90;;;;;;;0.28;100.00;92523.72;5055638;28;20253;-60
2022/12/15 01:56:47;;;;;;;1999.90;999.90;;;;;;;0.34;100.00;92522.09;5055510;28;20170;-60
2022/12/15 01:59:19;;;;;;;1999.90;999.90;;;;;;;0.28;100.00;92529.06;5055466;28;20160;-61
2022/12/15 02:01:45;;;;;;;1999.90;999.90;;;;;;;0.35;100.00;92528.97;5055255;28;20191;-61
2022/12/15 02:04:11;;;;;;;1999.90;999.90;;;;;;;0.28;100.00;92533.72;5054498;28;20203;-61
2022/12/15 02:06:36;;;;;;;1999.90;999.90;;;;;;;0.30;100.00;92542.84;5054969;28;20179;-61
2022/12/15 02:09:03;;;;;;;1999.90;999.90;;;;;;;0.22;100.00;92549.50;5055264;28;20172;-69
2022/12/15 02:11:38;;;;;;;1999.90;999.90;;;;;;;0.20;100.00;92562.56;5054769;28;20175;-60
2022/12/15 02:14:06;;;;;;;1999.90;999.90;;;;;;;0.09;100.00;92570.00;5054396;28;20314;-60
2022/12/15 02:17:02;;;;;;;1999.90;999.90;;;;;;;0.20;100.00;92561.78;5054930;28;20217;-60
2022/12/15 02:19:58;;;;;;;1999.90;999.90;;;;;;;0.19;100.00;92574.47;5055181;28;20200;-60
2022/12/15 02:22:45;;;;;;;1999.90;999.90;;;;;;;0.05;100.00;92596.13;5054463;28;20198;-60
2022/12/15 02:25:44;;;;;;;1999.90;999.90;;;;;;;0.01;100.00;92606.16;5054935;28;20214;-60
2022/12/15 02:28:15;;;;;;;1999.90;999.90;;;;;;;0.07;100.00;92625.97;5054394;28;20170;-63
2022/12/15 02:31:48;;;;;;;1999.90;999.90;;;;;;;0.14;100.00;92631.22;5054957;28;20163;-60
2022/12/15 02:33:40;;;;;;;1999.90;999.90;;;;;;;0.05;100.00;92641.72;5055114;28;20169;-60
2022/12/15 02:36:17;;;;;;;1999.90;999.90;;;;;;;0.06;100.00;92643.22;5054016;28;20169;-60
2022/12/15 02:38:43;;;;;;;1999.90;999.90;;;;;;;0.00;100.00;92659.00;5054001;28;20175;-60
2022/12/15 02:41:39;;;;;;;1999.90;999.90;;;;;;;0.05;100.00;92671.22;5054695;28;20259;-60
2022/12/15 02:44:16;;;;;;;1999.90;999.90;;;;;;;0.08;100.00;92681.13;5054689;28;20182;-60
2022/12/15 02:46:44;;;;;;;1999.90;999.90;;;;;;;-0.04;100.00;92695.84;5054900;28;20324;-64
2022/12/15 02:49:25;;;;;;;1999.90;999.90;;;;;;;0.04;100.00;92691.91;5053722;28;20187;-65
2022/12/15 02:52:08;;;;;;;1999.90;999.90;;;;;;;-0.02;100.00;92698.91;5054386;28;20211;-65
2022/12/15 02:55:06;;;;;;;1999.90;999.90;;;;;;;0.04;100.00;92691.16;5054580;28;20265;-64
2022/12/15 02:57:52;;;;;;;1999.90;999.90;;;;;;;0.14;100.00;92690.22;5020034;28;20286;-65
2022/12/15 03:00:18;;;;;;;1999.90;999.90;;;;;;;0.13;100.00;92704.81;5054473;28;20215;-64
2022/12/15 03:02:47;;;;;;;1999.90;999.90;;;;;;;0.07;100.00;92721.78;5054399;28;20234;-64
2022/12/15 03:05:13;;;;;;;1999.90;999.90;;;;;;;0.01;100.00;92713.41;5053804;28;20201;-62
2022/12/15 03:07:41;;;;;;;1999.90;999.90;;;;;;;0.01;100.00;92718.78;5054280;28;20185;-62
2022/12/15 03:10:09;;;;;;;1999.90;999.90;;;;;;;0.04;100.00;92723.34;5053548;28;20185;-62
2022/12/15 03:12:34;;;;;;;1999.90;999.90;;;;;;;-0.07;100.00;92746.84;5053452;28;20191;-62
2022/12/15 03:14:59;;;;;;;1999.90;999.90;;;;;;;0.02;100.00;92747.09;5053098;28;20174;-63
2022/12/15 03:17:25;;;;;;;1999.90;999.90;;;;;;;0.07;100.00;92743.22;5053309;28;20225;-63
2022/12/15 03:19:50;;;;;;;1999.90;999.90;;;;;;;0.06;100.00;92747.81;5054059;28;20172;-64
2022/12/15 03:22:15;;;;;;;1999.90;999.90;;;;;;;-0.04;100.00;92764.78;5053263;28;20212;-67
2022/12/15 03:24:41;;;;;;;1999.90;999.90;;;;;;;-0.05;100.00;92768.63;5054293;28;20215;-66
2022/12/15 03:27:06;;;;;;;1999.90;999.90;;;;;;;-0.06;100.00;92778.59;5053440;28;20203;-61
2022/12/15 03:29:31;;;;;;;1999.90;999.90;;;;;;;0.04;100.00;92793.81;5053388;28;20275;-63
2022/12/15 03:31:57;;;;;;;1999.90;999.90;;;;;;;0.08;100.00;92796.47;5053563;28;20276;-63
2022/12/15 03:34:22;;;;;;;1999.90;999.90;;;;;;;0.06;100.00;92812.19;5053589;28;20223;-61
2022/12/15 03:36:47;;;;;;;1999.90;999.90;;;;;;;-0.01;100.00;92836.41;5053635;28;20176;-61
2022/12/15 03:39:13;;;;;;;1999.90;999.90;;;;;;;-0.21;100.00;92854.22;5053280;28;20174;-61
2022/12/15 03:41:40;;;;;;;1999.90;999.90;;;;;;;-0.20;100.00;92863.78;5053369;28;20218;-70
2022/12/15 03:44:06;;;;;;;1999.90;999.90;;;;;;;-0.21;100.00;92873.00;5053800;28;20203;-63
2022/12/15 03:46:31;;;;;;;1999.90;999.90;;;;;;;-0.16;100.00;92891.31;5053999;28;20183;-64
2022/12/15 03:48:57;;;;;;;1999.90;999.90;;;;;;;-0.12;100.00;92897.41;5053861;28;20170;-63
2022/12/15 03:51:22;;;;;;;1999.90;999.90;;;;;;;-0.12;100.00;92908.13;5053183;28;20183;-65
2022/12/15 03:53:48;;;;;;;1999.90;999.90;;;;;;;-0.17;100.00;92933.44;5053231;28;20181;-65
2022/12/15 03:56:14;;;;;;;1999.90;999.90;;;;;;;-0.19;100.00;92951.88;5054226;28;20238;-65
2022/12/15 03:58:40;;;;;;;1999.90;999.90;;;;;;;-0.17;100.00;92959.53;5053809;28;20176;-59
2022/12/15 04:01:25;;;;;;;1999.90;999.90;;;;;;;-0.11;100.00;92977.47;5052782;28;20204;-61
2022/12/15 04:03:50;;;;;;;1999.90;999.90;;;;;;;-0.16;100.00;92983.25;5052893;28;20203;-64
2022/12/15 04:06:15;;;;;;;1999.90;999.90;;;;;;;-0.14;100.00;93002.38;5053336;28;20176;-63
2022/12/15 04:08:41;;;;;;;1999.90;999.90;;;;;;;-0.28;100.00;93013.19;5053447;28;20177;-64
2022/12/15 04:11:06;;;;;;;1999.90;999.90;;;;;;;-0.41;100.00;93032.81;5053411;28;20177;-64
2022/12/15 04:13:31;;;;;;;1999.90;999.90;;;;;;;-0.53;100.00;93044.75;5052804;28;20537;-64
2022/12/15 04:16:00;;;;;;;1999.90;999.90;;;;;;;-0.50;100.00;93045.91;5053266;28;20182;-64
2022/12/15 04:18:26;;;;;;;1999.90;999.90;;;;;;;-0.47;100.00;93058.50;5052947;28;20219;-63
2022/12/15 04:20:51;;;;;;;1999.90;999.90;;;;;;;-0.48;100.00;93063.09;5053247;28;20186;-68
2022/12/15 04:23:16;;;;;;;1999.90;999.90;;;;;;;-0.47;100.00;93067.31;5052852;28;20182;-67
2022/12/15 05:31:53;;;;;;;1999.90;999.90;;;;;;;-0.93;100.00;93171.19;5056932;28;20212;-67
2022/12/15 05:34:21;;;;;;;1999.90;999.90;;;;;;;-0.95;100.00;93172.72;5056024;28;20167;-60
2022/12/15 05:36:47;;;;;;;1999.90;999.90;;;;;;;-0.92;100.00;93158.53;5055512;28;20174;-60
2022/12/15 05:39:13;;;;;;;1999.90;999.90;;;;;;;-0.96;100.00;93160.47;5054980;28;20172;-60
2022/12/15 05:41:38;;;;;;;1999.90;999.90;;;;;;;-0.92;100.00;93161.22;5055250;28;20201;-60
2022/12/15 05:44:04;;;;;;;1999.90;999.90;;;;;;;-0.96;100.00;93161.25;5055168;28;20174;-60
2022/12/15 05:46:29;;;;;;;1999.90;999.90;;;;;;;-1.00;100.00;93162.38;5055200;28;20178;-60
2022/12/15 05:48:55;;;;;;;1999.90;999.90;;;;;;;-0.97;100.00;93158.94;5055324;28;20170;-62
2022/12/15 05:51:21;;;;;;;1999.90;999.90;;;;;;;-1.00;100.00;93159.72;5055575;28;20263;-65
2022/12/15 05:53:46;;;;;;;1999.90;999.90;;;;;;;-0.98;100.00;93158.16;5055207;28;20169;-63
2022/12/15 05:56:13;;;;;;;1999.90;999.90;;;;;;;-1.01;100.00;93160.88;5054734;28;20253;-64
2022/12/15 05:58:40;;;;;;;1999.90;999.90;;;;;;;-0.91;100.00;93152.06;5055134;28;20237;-63
2022/12/15 06:01:12;;;;;;;1999.90;999.90;;;;;;;-0.94;100.00;93163.53;5054544;28;20219;-63
2022/12/15 06:03:38;;;;;;;1999.90;999.90;;;;;;;-0.91;100.00;93170.81;5054822;28;20262;-63
2022/12/15 06:06:04;;;;;;;1999.90;999.90;;;;;;;-0.91;100.00;93184.19;5055322;28;20235;-63
2022/12/15 06:08:33;;;;;;;1999.90;999.90;;;;;;;-0.93;100.00;93192.59;5055025;28;20292;-60
2022/12/15 06:10:59;;;;;;;1999.90;999.90;;;;;;;-0.92;100.00;93198.72;5054632;28;20174;-65
2022/12/15 06:13:26;;;;;;;1999.90;999.90;;;;;;;-1.00;100.00;93211.34;5054273;28;20180;-64
2022/12/15 06:16:00;;;;;;;1999.90;999.90;;;;;;;-0.98;100.00;93209.03;5054295;28;20175;-64
2022/12/15 06:18:30;;;;;;;1999.90;999.90;;;;;;;-1.03;100.00;93208.66;5054472;28;20221;-63
2022/12/15 06:20:57;;;;;;;1999.90;999.90;;;;;;;-0.97;100.00;93207.13;5054645;28;20173;-65
2022/12/15 06:23:22;;;;;;;1999.90;999.90;;;;;;;-0.94;100.00;93217.09;5054578;28;20189;-64
2022/12/15 06:25:48;;;;;;;1999.90;999.90;;;;;;;-0.91;100.00;93216.31;5053996;28;20178;-63
2022/12/15 06:28:22;;;;;;;1999.90;999.90;;;;;;;-0.91;100.00;93227.78;5054565;28;20179;-61
2022/12/15 06:30:48;;;;;;;1999.90;999.90;;;;;;;-0.89;100.00;93230.84;5054100;28;20185;-62
2022/12/15 06:33:13;;;;;;;1999.90;999.90;;;;;;;-0.82;100.00;93235.44;5054667;28;20186;-61
2022/12/15 06:35:38;;;;;;;1999.90;999.90;;;;;;;-0.87;100.00;93239.25;5053927;28;20179;-62
2022/12/15 06:38:04;;;;;;;1999.90;999.90;;;;;;;-0.94;100.00;93238.50;5054011;28;20229;-62
2022/12/15 06:40:29;;;;;;;1999.90;999.90;;;;;;;-1.00;100.00;93240.81;5054561;28;20201;-61
2022/12/15 06:42:54;;;;;;;1999.90;999.90;;;;;;;-0.94;100.00;93238.50;5054063;28;20201;-62
2022/12/15 06:45:20;;;;;;;1999.90;999.90;;;;;;;-0.87;100.00;93238.50;5054076;28;20170;-64
2022/12/15 06:47:47;;;;;;;1999.90;999.90;;;;;;;-0.84;100.00;93243.09;5054454;28;20164;-62
2022/12/15 06:50:13;;;;;;;1999.90;999.90;;;;;;;-0.84;100.00;93251.13;5053626;28;20263;-62
2022/12/15 06:52:38;;;;;;;1999.90;999.90;;;;;;;-0.83;100.00;93266.06;5054415;28;20343;-62
2022/12/15 06:55:04;;;;;;;1999.90;999.90;;;;;;;-0.81;100.00;93269.09;5053946;28;20173;-64
2022/12/15 06:57:29;;;;;;;1999.90;999.90;;;;;;;-0.89;100.00;93272.94;5053870;28;20178;-64
2022/12/15 06:59:54;;;;;;;1999.90;999.90;;;;;;;-0.97;100.00;93279.44;5053506;28;20178;-66
2022/12/15 07:02:20;;;;;;;1999.90;999.90;;;;;;;-0.98;100.00;93280.59;5054210;28;20199;-65
2022/12/15 07:04:46;;;;;;;1999.90;999.90;;;;;;;-0.96;100.00;93283.63;5053732;28;20198;-61
2022/12/15 07:07:11;;;;;;;1999.90;999.90;;;;;;;-0.93;100.00;93285.56;5054118;28;20177;-60
2022/12/15 07:09:36;;;;;;;1999.90;999.90;;;;;;;-1.01;100.00;93281.34;5054228;28;20608;-60
2022/12/15 07:12:02;;;;;;;1999.90;999.90;;;;;;;-1.04;100.00;93276.75;5053697;28;20179;-60
2022/12/15 07:14:27;;;;;;;1999.90;999.90;;;;;;;-1.13;100.00;93287.09;5053595;28;20183;-60
2022/12/15 07:16:53;;;;;;;1999.90;999.90;;;;;;;-1.10;100.00;93286.31;5053419;28;20181;-65
2022/12/15 07:19:18;;;;;;;1999.90;999.90;;;;;;;-1.12;100.00;93288.63;5053475;28;20182;-60
2022/12/15 07:21:44;;;;;;;1999.90;999.90;;;;;;;-1.16;100.00;93279.81;5053420;28;20200;-61
2022/12/15 07:24:12;;;;;;;1999.90;999.90;;;;;;;-1.08;100.00;93290.16;5053995;28;20174;-61
2022/12/15 07:26:39;;;;;;;1999.90;999.90;;;;;;;-1.09;100.00;93301.25;5053145;28;20166;-61
2022/12/15 07:29:04;;;;;;;1999.90;999.90;;;;;;;-1.11;100.00;93300.84;5053137;28;20171;-61
2022/12/15 07:31:30;;;;;;;1999.90;999.90;;;;;;;-1.01;100.00;93305.44;5053553;28;20246;-61
2022/12/15 07:33:59;;;;;;;1999.90;999.90;;;;;;;-0.97;100.00;93308.88;5053393;28;20175;-61
2022/12/15 07:36:26;;;;;;;1999.90;999.90;;;;;;;-0.85;100.00;93300.47;5053095;28;20170;-61
2022/12/15 07:38:55;;;;;;;1999.90;999.90;;;;;;;-0.84;100.00;93310.06;5053796;28;20178;-62
2022/12/15 07:41:20;;;;;;;1999.90;999.90;;;;;;;-0.99;100.00;93311.16;5053048;28;20243;-67
2022/12/15 07:43:46;;;;;;;1999.90;999.90;;;;;;;-0.84;100.00;93302.03;5053329;28;20179;-61
2022/12/15 07:46:12;;;;;;;1999.90;999.90;;;;;;;-0.99;100.00;93308.50;5053727;28;20214;-61
2022/12/15 07:48:37;;;;;;;1999.90;999.90;;;;;;;-1.09;100.00;93322.66;5053230;28;20186;-62
2022/12/15 07:51:06;;;;;;;1999.90;999.90;;;;;;;-1.01;100.00;93324.19;5053193;28;20175;-62
2022/12/15 07:53:31;;;;;;;1999.90;999.90;;;;;;;-0.88;100.00;93312.72;5052928;28;20178;-61
2022/12/15 07:55:58;;;;;;;1999.90;999.90;;;;;;;-0.83;100.00;93322.28;5053677;28;20172;-62
2022/12/15 07:58:25;;;;;;;1999.90;999.90;;;;;;;-0.67;100.00;93320.00;5053125;28;20178;-66
2022/12/15 08:00:51;;;;;;;1999.90;999.90;;;;;;;-0.66;100.00;93333.00;5053204;28;20174;-61
2022/12/15 08:03:17;;;;;;;1999.90;999.90;;;;;;;-0.55;100.00;93324.94;5056854;28;20202;-61
2022/12/15 08:05:43;;;;;;;1999.90;999.90;;;;;;;-0.71;100.00;93343.34;5056661;28;20198;-61
2022/12/15 08:08:09;;;;;;;1999.90;999.90;;;;;;;-0.47;100.00;93347.94;5057000;28;20178;-61
2022/12/15 08:10:37;;;;;;;1999.90;999.90;;;;;;;-0.52;100.00;93359.03;5057738;28;20257;-61
2022/12/15 08:13:03;;;;;;;1999.90;999.90;;;;;;;-0.66;100.00;93393.84;5056622;28;20178;-62
2022/12/15 08:15:28;;;;;;;1999.90;999.90;;;;;;;-0.66;100.00;93399.22;5056899;28;20178;-61
2022/12/15 08:17:53;;;;;;;1999.90;999.90;;;;;;;-0.79;100.00;93416.81;5056912;28;20321;-65
2022/12/15 08:20:19;;;;;;;1999.90;999.90;;;;;;;-0.71;100.00;93413.75;5057899;28;20178;-65
2022/12/15 08:22:44;;;;;;;1999.90;999.90;;;;;;;-0.62;100.00;93421.44;5056649;28;20217;-65
2022/12/15 08:25:09;;;;;;;1999.90;999.90;;;;;;;-0.60;100.00;93435.19;5056665;28;20198;-64
2022/12/15 08:27:35;;;;;;;1999.90;999.90;;;;;;;-0.60;100.00;93445.91;5057032;28;20179;-64
2022/12/15 08:30:00;;;;;;;1999.90;999.90;;;;;;;-0.60;100.00;93462.00;5056730;28;20174;-65
2022/12/15 08:32:25;;;;;;;1999.90;999.90;;;;;;;-0.67;100.00;93476.16;5057044;28;20560;-64
2022/12/15 08:34:51;;;;;;;1999.90;999.90;;;;;;;-0.48;100.00;93480.38;5056639;28;20186;-60
2022/12/15 08:37:16;;;;;;;1999.90;999.90;;;;;;;-0.33;100.00;93487.31;5056696;28;20175;-64
2022/12/15 08:39:41;;;;;;;1999.90;999.90;;;;;;;-0.41;100.00;93496.47;5057723;28;20229;-61
2022/12/15 08:42:07;;;;;;;1999.90;999.90;;;;;;;-0.30;100.00;93513.34;5056054;28;20203;-62
2022/12/15 08:44:32;;;;;;;1999.90;999.90;;;;;;;-0.19;100.00;93509.53;5056946;28;20206;-61
2022/12/15 08:46:58;;;;;;;1999.90;999.90;;;;;;;-0.06;100.00;93518.00;5056334;28;20178;-62
2022/12/15 08:49:23;;;;;;;1999.90;999.90;;;;;;;-0.06;100.00;93544.81;5056360;28;20186;-61
2022/12/15 08:51:49;;;;;;;1999.90;999.90;;;;;;;-0.05;100.00;93554.38;5056602;28;20263;-61
2022/12/15 08:54:14;;;;;;;1999.90;999.90;;;;;;;0.15;100.00;93558.25;5056815;28;20183;-60
2022/12/15 08:56:39;;;;;;;1999.90;999.90;;;;;;;0.03;100.00;93580.06;5056708;28;20208;-64
2022/12/15 08:59:05;;;;;;;1999.90;999.90;;;;;;;0.10;100.00;93606.91;5056185;28;20179;-64
2022/12/15 09:01:31;;;;;;;1999.90;999.90;;;;;;;0.16;100.00;93616.13;5055539;28;20254;-63
2022/12/15 09:04:00;;;;;;;1999.90;999.90;;;;;;;0.35;100.00;93602.34;5055735;28;20198;-65
2022/12/15 09:06:30;;;;;;;1999.90;999.90;;;;;;;0.11;100.00;93629.13;5056385;28;20229;-64
2022/12/15 09:08:58;;;;;;;1999.90;999.90;;;;;;;-0.02;100.00;93642.13;5055990;28;20283;-64
2022/12/15 09:11:24;;;;;;;1999.90;999.90;;;;;;;-0.02;100.00;93653.63;5055731;28;20190;-60
2022/12/15 09:13:50;;;;;;;1999.90;999.90;;;;;;;0.03;100.00;93663.22;5054274;28;20183;-60
2022/12/15 09:16:16;;;;;;;1999.90;999.90;;;;;;;0.16;100.00;93661.72;5056067;28;20211;-59
2022/12/15 09:18:44;;;;;;;1999.90;999.90;;;;;;;0.11;100.00;93661.31;5055846;28;20227;-60
2022/12/15 09:21:10;;;;;;;1999.90;999.90;;;;;;;0.16;100.00;93653.69;5055520;28;20186;-60
2022/12/15 09:23:36;;;;;;;1999.90;999.90;;;;;;;-0.01;100.00;93643.66;5055686;28;20175;-62
2022/12/15 09:26:10;;;;;;;1999.90;999.90;;;;;;;-0.13;100.00;93641.34;5055103;28;20169;-60
2022/12/15 09:28:37;;;;;;;1999.90;999.90;;;;;;;-0.05;100.00;93637.53;5055524;28;20164;-60
2022/12/15 09:31:03;;;;;;;1999.90;999.90;;;;;;;-0.13;100.00;93635.97;5055799;28;20172;-64
2022/12/15 09:33:28;;;;;;;1999.90;999.90;;;;;;;-0.09;100.00;93621.44;5055277;28;20183;-61
2022/12/15 09:35:54;;;;;;;1999.90;999.90;;;;;;;-0.08;100.00;93614.13;5055424;28;20198;-60
2022/12/15 09:38:19;;;;;;;1999.90;999.90;;;;;;;0.15;100.00;93616.50;5055502;28;20184;-60
2022/12/15 09:40:44;;;;;;;1999.90;999.90;;;;;;;0.11;100.00;93619.19;5055203;28;20171;-60
2022/12/15 09:43:17;;;;;;;1999.90;999.90;;;;;;;0.04;100.00;93624.53;5055104;28;20221;-60
2022/12/15 09:45:49;;;;;;;1999.90;999.90;;;;;;;0.08;100.00;93625.31;5055252;28;20208;-60
2022/12/15 09:48:32;;;;;;;1999.90;999.90;;;;;;;-0.07;100.00;93629.09;5055082;28;20168;-65
2022/12/15 09:51:03;;;;;;;1999.90;999.90;;;;;;;0.00;100.00;93634.50;5056130;28;20179;-61
2022/12/15 09:53:28;;;;;;;1999.90;999.90;;;;;;;0.08;100.00;93626.06;5055907;28;20178;-64
2022/12/15 09:56:02;;;;;;;1999.90;999.90;;;;;;;0.17;100.00;93623.00;5055075;28;20248;-63
2022/12/15 09:58:36;;;;;;;1999.90;999.90;;;;;;;0.10;100.00;93625.69;5055345;28;20172;-65
2022/12/15 10:01:36;;;;;;;1999.90;999.90;;;;;;;0.19;100.00;93619.94;5055399;28;20168;-64
2022/12/15 10:04:29;;;;;;;1999.90;999.90;;;;;;;0.15;100.00;93619.94;5055164;28;20242;-65
2022/12/15 10:07:11;;;;;;;1999.90;999.90;;;;;;;0.20;100.00;93610.75;5046580;28;20222;-61
2022/12/15 10:09:37;;;;;;;1999.90;999.90;;;;;;;0.17;100.00;93601.53;5055434;28;20266;-69
2022/12/15 10:12:11;;;;;;;1999.90;999.90;;;;;;;0.46;100.00;93587.00;5055348;28;20190;-60
2022/12/15 10:14:48;;;;;;;1999.90;999.90;;;;;;;0.42;100.00;93591.59;5055216;28;20176;-60
2022/12/15 10:17:23;;;;;;;1999.90;999.90;;;;;;;0.38;100.00;93606.94;5054559;28;20277;-61
2022/12/15 10:20:01;;;;;;;1999.90;999.90;;;;;;;0.44;100.00;93589.31;5055179;28;20178;-61
2022/12/15 10:22:32;;;;;;;1999.90;999.90;;;;;;;0.61;100.00;93593.91;5054854;28;20303;-61
2022/12/15 10:25:14;;;;;;;1999.90;999.90;;;;;;;0.59;100.00;93598.13;5054491;28;20177;-66
2022/12/15 10:28:11;;;;;;;1999.90;999.90;;;;;;;0.60;100.00;93613.84;5054591;28;20179;-66
2022/12/15 10:30:58;;;;;;;1999.90;999.90;;;;;;;0.52;100.00;93625.75;5054867;28;20184;-60
2022/12/15 10:33:28;;;;;;;1999.90;999.90;;;;;;;0.41;100.00;93634.94;5054786;28;20184;-60
2022/12/15 10:35:54;;;;;;;1999.90;999.90;;;;;;;0.31;100.00;93617.66;5054742;28;20184;-61
2022/12/15 10:38:36;;;;;;;1999.90;999.90;;;;;;;0.33;100.00;93618.06;5054502;28;20215;-60
2022/12/15 10:41:10;;;;;;;1999.90;999.90;;;;;;;0.37;100.00;93616.16;5054217;28;20202;-61
2022/12/15 10:43:39;;;;;;;1999.90;999.90;;;;;;;0.35;100.00;93612.28;5055121;28;20187;-64
2022/12/15 10:46:13;;;;;;;1999.90;999.90;;;;;;;0.52;100.00;93598.91;5053796;28;20294;-62
2022/12/15 10:48:39;;;;;;;1999.90;999.90;;;;;;;0.51;100.00;93585.84;5053617;28;20202;-61
2022/12/15 10:51:16;;;;;;;1999.90;999.90;;;;;;;0.51;100.00;93583.16;5053855;28;20173;-60
2022/12/15 10:53:50;;;;;;;1999.90;999.90;;;;;;;0.72;100.00;93567.81;5053739;28;20181;-61
2022/12/15 10:56:22;;;;;;;1999.90;999.90;;;;;;;0.63;100.00;93570.13;5053619;28;20172;-61
2022/12/15 10:58:51;;;;;;;1999.90;999.90;;;;;;;0.57;100.00;93554.78;5053765;28;20174;-60
2022/12/15 11:01:19;;;;;;;1999.90;999.90;;;;;;;0.47;100.00;93550.94;5053471;28;20242;-61
2022/12/15 11:03:45;;;;;;;1999.90;999.90;;;;;;;0.70;100.00;93529.84;5053712;28;20228;-66
2022/12/15 11:06:16;;;;;;;1999.90;999.90;;;;;;;0.46;100.00;93554.78;5053743;28;20220;-61
2022/12/15 11:08:42;;;;;;;1999.90;999.90;;;;;;;0.52;100.00;93558.63;5053630;28;20273;-60
2022/12/15 11:14:12;;;;;;;1999.90;999.90;;;;;;;0.51;100.00;93557.06;5054434;28;20177;-60
2022/12/15 11:16:48;;;;;;;1999.90;999.90;;;;;;;0.77;100.00;93542.47;5054496;28;20261;-60
2022/12/15 11:19:28;;;;;;;1999.90;999.90;;;;;;;0.65;100.00;93540.97;5053456;28;20234;-60
2022/12/15 11:21:58;;;;;;;1999.90;999.90;;;;;;;0.51;100.00;93540.97;5053973;28;20243;-70
2022/12/15 11:24:44;;;;;;;1999.90;999.90;;;;;;;0.69;100.00;93524.84;5053645;28;20175;-66
2022/12/15 11:27:21;;;;;;;1999.90;999.90;;;;;;;0.77;100.00;93524.47;5053636;28;20173;-67
2022/12/15 11:29:53;;;;;;;1999.90;999.90;;;;;;;0.57;100.00;93528.69;5053855;28;20179;-65
2022/12/15 11:32:24;;;;;;;1999.90;999.90;;;;;;;0.36;100.00;93526.03;5053489;28;20183;-65
2022/12/15 11:34:49;;;;;;;1999.90;999.90;;;;;;;0.41;100.00;93520.28;5053155;28;20234;-68
2022/12/15 11:37:44;;;;;;;1999.90;999.90;;;;;;;0.50;100.00;93522.59;5052916;28;20183;-66
2022/12/15 11:40:37;;;;;;;1999.90;999.90;;;;;;;0.75;100.00;93502.59;5053065;28;20230;-64
2022/12/15 11:43:33;;;;;;;1999.90;999.90;;;;;;;0.63;100.00;93508.38;5053136;28;20213;-65
2022/12/15 11:46:23;;;;;;;1999.90;999.90;;;;;;;0.74;100.00;93522.53;5053356;28;20181;-65
2022/12/15 11:49:04;;;;;;;1999.90;999.90;;;;;;;0.71;100.00;93522.53;5053370;28;20173;-64
2022/12/15 11:51:55;;;;;;;1999.90;999.90;;;;;;;0.73;100.00;93530.97;5053273;28;20169;-64
2022/12/15 11:54:35;;;;;;;1999.90;999.90;;;;;;;0.71;100.00;93534.06;5052918;28;20172;-63
2022/12/15 11:57:17;;;;;;;1999.90;999.90;;;;;;;0.64;100.00;93539.44;5053654;28;20160;-69
2022/12/15 11:59:53;;;;;;;1999.90;999.90;;;;;;;0.65;100.00;93540.22;5053624;28;20169;-66
2022/12/15 12:02:58;;;;;;;1999.90;999.90;;;;;;;0.48;100.00;93552.50;5052938;28;20194;-65
2022/12/15 12:05:37;;;;;;;1999.90;999.90;;;;;;;0.29;100.00;93550.19;5052695;28;20259;-66
2022/12/15 12:08:20;;;;;;;1999.90;999.90;;;;;;;0.53;100.00;93527.94;5053846;28;20160;-65
2022/12/15 12:11:05;;;;;;;1999.90;999.90;;;;;;;0.45;100.00;93526.41;5053476;28;20170;-66
2022/12/15 12:13:49;;;;;;;1999.90;999.90;;;;;;;0.32;100.00;93514.53;5053414;28;20252;-68
2022/12/15 12:16:32;;;;;;;1999.90;999.90;;;;;;;0.52;100.00;93483.47;5053135;28;20181;-71
2022/12/15 12:19:10;;;;;;;1999.90;999.90;;;;;;;0.52;100.00;93480.78;5052385;28;20233;-71
2022/12/15 12:21:46;;;;;;;1999.90;999.90;;;;;;;0.44;100.00;93455.09;5053373;28;20197;-69
2022/12/15 12:24:18;;;;;;;1999.90;999.90;;;;;;;0.57;100.00;93442.00;5052892;28;20172;-72
2022/12/15 12:26:50;;;;;;;1999.90;999.90;;;;;;;0.57;100.00;93440.09;5053245;28;20171;-73
2022/12/15 12:29:15;;;;;;;1999.90;999.90;;;;;;;0.49;100.00;93429.78;5053788;28;20180;-69
2022/12/15 12:31:53;;;;;;;1999.90;999.90;;;;;;;0.50;100.00;93426.69;5053436;28;20175;-70
2022/12/15 12:34:57;;;;;;;1999.90;999.90;;;;;;;0.61;100.00;93421.31;5053589;28;20173;-61
2022/12/15 12:37:25;;;;;;;1999.90;999.90;;;;;;;0.63;100.00;93411.72;5052747;28;20192;-61
2022/12/15 12:39:55;;;;;;;1999.90;999.90;;;;;;;0.71;100.00;93421.28;5052877;28;20179;-63
2022/12/15 12:42:29;;;;;;;1999.90;999.90;;;;;;;0.60;100.00;93423.22;5053209;28;20276;-61
2022/12/15 12:44:54;;;;;;;1999.90;999.90;;;;;;;0.81;100.00;93404.34;5053437;28;20222;-62
2022/12/15 12:47:31;;;;;;;1999.90;999.90;;;;;;;0.52;100.00;93429.78;5052549;28;20171;-62
2022/12/15 12:50:12;;;;;;;1999.90;999.90;;;;;;;0.38;100.00;93420.97;5056583;28;20187;-62
2022/12/15 12:52:56;;;;;;;1999.90;999.90;;;;;;;0.43;100.00;93426.72;5056010;28;20183;-69
2022/12/15 12:55:26;;;;;;;1999.90;999.90;;;;;;;0.53;100.00;93420.56;5056710;28;20171;-66
2022/12/15 12:57:53;;;;;;;1999.90;999.90;;;;;;;0.49;100.00;93414.44;5056190;28;20278;-61
2022/12/15 13:00:27;;;;;;;1999.90;999.90;;;;;;;0.44;100.00;93417.53;5056638;28;20190;-60
2022/12/15 13:03:15;;;;;;;1999.90;999.90;;;;;;;0.46;100.00;93425.16;5056597;28;20201;-60
2022/12/15 13:05:41;;;;;;;1999.90;999.90;;;;;;;0.29;100.00;93415.25;5055696;28;20208;-60
2022/12/15 13:08:07;;;;;;;1999.90;999.90;;;;;;;0.24;100.00;93424.47;5055855;28;20233;-60
2022/12/15 13:10:38;;;;;;;1999.90;999.90;;;;;;;0.33;100.00;93414.09;5055868;28;20180;-60
2022/12/15 13:13:16;;;;;;;1999.90;999.90;;;;;;;0.38;100.00;93400.28;5055765;28;20164;-65
2022/12/15 13:15:47;;;;;;;1999.90;999.90;;;;;;;0.17;100.00;93408.38;5056626;28;20179;-60
2022/12/15 13:18:22;;;;;;;1999.90;999.90;;;;;;;0.39;100.00;93409.84;5055325;28;20224;-61
2022/12/15 13:20:52;;;;;;;1999.90;999.90;;;;;;;0.40;100.00;93411.38;5056254;28;20239;-60
2022/12/15 13:23:20;;;;;;;1999.90;999.90;;;;;;;0.18;100.00;93409.91;5055453;28;20211;-60
2022/12/15 13:25:45;;;;;;;1999.90;999.90;;;;;;;-0.06;100.00;93419.50;5055221;28;20206;-61